Time;durP1;ratioP1;P1;durP2;ratioP2;P2;SDS_P1;SDS_P2;PMS_P1;PMS_P2;Temp;Humidity;BMP_temperature;BMP_pressure;BME280_temperature;BME280_humidity;BME280_pressure;Samples;Min_cycle;Max_cycle;Signal;HPM_P1;HPM_P2
2022/03/06 00:00:47;;;;;;;17.40;10.00;;;;;;;2.83;100.00;61104.13;5114749;28;20447;-75
2022/03/06 00:03:19;;;;;;;22.53;12.90;;;;;;;2.35;100.00;61059.25;5115853;28;20493;-74
2022/03/06 00:11:20;;;;;;;14.83;9.57;;;;;;;1.68;100.00;60986.13;5115302;28;20436;-77
2022/03/06 00:13:47;;;;;;;11.27;7.10;;;;;;;2.43;100.00;61067.75;5114944;28;20459;-76
2022/03/06 00:16:15;;;;;;;16.43;9.90;;;;;;;2.96;100.00;61123.50;5113504;28;20961;-77
2022/03/06 00:18:52;;;;;;;13.43;7.47;;;;;;;2.65;100.00;61085.00;5114793;28;20523;-74
2022/03/06 00:21:42;;;;;;;7.80;5.27;;;;;;;2.82;100.00;61105.59;5114578;28;20947;-76
2022/03/06 00:24:19;;;;;;;11.50;7.73;;;;;;;2.62;100.00;61086.88;5113599;28;20535;-74
2022/03/06 00:26:50;;;;;;;11.73;6.90;;;;;;;2.68;100.00;61088.22;5114098;28;20488;-75
2022/03/06 00:29:20;;;;;;;6.67;3.73;;;;;;;2.31;100.00;61055.00;5114618;28;20480;-74
2022/03/06 00:31:47;;;;;;;10.83;7.10;;;;;;;2.52;100.00;61074.78;5114536;28;20433;-76
2022/03/06 00:34:20;;;;;;;9.73;6.53;;;;;;;2.64;100.00;61083.97;5113963;28;20823;-75
2022/03/06 00:37:04;;;;;;;6.50;4.17;;;;;;;2.54;100.00;61078.88;5114731;28;20440;-75
2022/03/06 00:39:33;;;;;;;10.23;5.23;;;;;;;1.49;100.00;60965.44;5096446;28;20436;-76
2022/03/06 00:42:00;;;;;;;9.97;6.40;;;;;;;1.36;100.00;60949.13;5113941;28;20472;-75
2022/03/06 00:44:30;;;;;;;8.40;5.30;;;;;;;2.03;100.00;61022.22;5113840;28;20440;-75
2022/03/06 00:47:09;;;;;;;12.67;7.47;;;;;;;2.32;100.00;61051.03;5113857;28;20494;-75
2022/03/06 00:49:38;;;;;;;11.13;6.83;;;;;;;2.07;100.00;61029.50;5096003;28;20485;-75
2022/03/06 00:52:25;;;;;;;11.10;7.00;;;;;;;2.38;100.00;61059.38;5113863;28;20449;-75
2022/03/06 00:57:40;;;;;;;13.43;6.23;;;;;;;2.17;100.00;61034.56;5113380;28;20520;-76
2022/03/06 01:00:13;;;;;;;16.53;8.20;;;;;;;2.29;100.00;61047.84;5114272;28;20486;-73
2022/03/06 01:02:47;;;;;;;14.37;8.00;;;;;;;2.45;100.00;61067.34;5113747;28;20449;-74
2022/03/06 01:08:06;;;;;;;18.17;10.63;;;;;;;1.58;100.00;60977.47;5112850;28;20452;-74
2022/03/06 01:13:17;;;;;;;16.13;9.07;;;;;;;2.30;100.00;61048.91;5113217;28;20456;-77
2022/03/06 01:15:49;;;;;;;12.80;7.07;;;;;;;2.33;100.00;61057.13;5114489;28;20875;-73
2022/03/06 01:18:20;;;;;;;15.83;9.43;;;;;;;2.40;100.00;61064.53;5115137;28;20433;-74
2022/03/06 01:20:47;;;;;;;15.17;10.43;;;;;;;2.32;100.00;61055.50;5115276;28;20877;-75
2022/03/06 01:26:31;;;;;;;15.10;9.13;;;;;;;2.64;100.00;61089.00;5112616;28;20472;-76
2022/03/06 01:29:01;;;;;;;13.43;8.47;;;;;;;2.52;100.00;61072.25;5113437;28;20834;-74
2022/03/06 01:31:30;;;;;;;19.87;11.33;;;;;;;2.15;100.00;61032.44;5112686;28;20449;-75
2022/03/06 01:34:32;;;;;;;21.70;12.37;;;;;;;2.65;100.00;61085.00;5113518;28;20429;-73
2022/03/06 01:37:08;;;;;;;19.00;12.63;;;;;;;2.52;100.00;61077.28;5113098;28;20451;-75
2022/03/06 01:39:45;;;;;;;21.70;11.77;;;;;;;1.60;100.00;60974.59;5113011;28;20962;-75
2022/03/06 01:42:23;;;;;;;19.70;10.10;;;;;;;2.61;100.00;61080.75;5113128;28;20424;-76
2022/03/06 01:45:12;;;;;;;21.53;12.83;;;;;;;2.43;100.00;61065.22;5113076;28;20437;-74
2022/03/06 01:47:44;;;;;;;21.50;13.40;;;;;;;2.53;100.00;61078.38;5112880;28;20955;-75
2022/03/06 01:50:19;;;;;;;18.17;10.97;;;;;;;1.91;100.00;61006.97;5112695;28;20861;-74
2022/03/06 01:52:47;;;;;;;16.10;9.53;;;;;;;2.50;100.00;61067.09;5112870;28;20429;-75
2022/03/06 01:55:18;;;;;;;16.57;9.37;;;;;;;2.62;100.00;61086.88;5112534;28;20439;-74
2022/03/06 01:57:49;;;;;;;17.00;8.77;;;;;;;2.51;100.00;61075.72;5112808;28;20887;-76
2022/03/06 02:00:34;;;;;;;19.80;11.57;;;;;;;2.83;100.00;61104.13;5113266;28;20992;-76
2022/03/06 02:03:02;;;;;;;16.67;9.30;;;;;;;2.81;100.00;61102.56;5112638;28;20963;-75
2022/03/06 02:05:32;;;;;;;20.10;11.23;;;;;;;1.57;100.00;60976.44;5112931;28;21019;-75
2022/03/06 02:08:11;;;;;;;19.90;12.03;;;;;;;2.95;100.00;61119.41;5114198;28;20447;-75
2022/03/06 02:10:42;;;;;;;18.13;12.27;;;;;;;2.87;100.00;61111.44;5112975;28;20490;-76
2022/03/06 02:13:16;;;;;;;11.10;6.77;;;;;;;2.72;100.00;61095.50;5112666;28;20519;-74
2022/03/06 02:15:49;;;;;;;13.70;7.53;;;;;;;2.68;100.00;61088.72;5112746;28;20436;-76
2022/03/06 02:18:18;;;;;;;15.17;9.07;;;;;;;2.75;100.00;61101.22;5112943;28;20433;-74
2022/03/06 02:20:47;;;;;;;21.80;13.90;;;;;;;2.90;100.00;61111.59;5112419;28;20476;-76
2022/03/06 02:23:18;;;;;;;14.80;9.33;;;;;;;2.00;100.00;61019.56;5112547;28;20429;-74
2022/03/06 02:25:49;;;;;;;17.13;9.60;;;;;;;2.84;100.00;61105.22;5111989;28;20479;-75
2022/03/06 02:28:18;;;;;;;20.00;11.47;;;;;;;2.96;100.00;61117.97;5111961;28;20808;-74
2022/03/06 02:30:46;;;;;;;16.57;9.17;;;;;;;2.86;100.00;61107.84;5111928;28;20890;-73
2022/03/06 02:33:17;;;;;;;16.13;10.23;;;;;;;2.98;100.00;61120.09;5111932;28;20449;-75
2022/03/06 02:35:45;;;;;;;9.47;6.40;;;;;;;2.80;100.00;61100.97;5094228;28;20443;-74
2022/03/06 02:38:31;;;;;;;13.50;6.47;;;;;;;2.61;100.00;61080.75;5112297;28;20440;-74
2022/03/06 02:41:05;;;;;;;14.83;9.80;;;;;;;2.85;100.00;61104.28;5111979;28;20463;-75
2022/03/06 02:43:32;;;;;;;11.93;6.73;;;;;;;1.66;100.00;60985.97;5112943;28;20432;-77
2022/03/06 02:46:00;;;;;;;8.30;5.03;;;;;;;2.76;100.00;61101.75;5112911;28;20499;-75
2022/03/06 02:51:08;;;;;;;12.60;7.70;;;;;;;2.74;100.00;61099.63;5111579;28;20834;-73
2022/03/06 02:53:41;;;;;;;10.10;6.90;;;;;;;2.82;100.00;61108.13;5112235;28;20444;-75
2022/03/06 02:56:11;;;;;;;11.33;7.83;;;;;;;2.63;100.00;61087.91;5111978;28;20439;-76
2022/03/06 02:58:39;;;;;;;8.90;5.37;;;;;;;1.56;100.00;60968.38;5112440;28;20425;-76
2022/03/06 03:01:20;;;;;;;9.33;5.73;;;;;;;2.73;100.00;61099.06;5093848;28;20448;-74
2022/03/06 03:03:50;;;;;;;14.20;8.83;;;;;;;2.67;100.00;61089.66;5111091;28;20436;-75
2022/03/06 03:06:24;;;;;;;11.70;6.27;;;;;;;2.73;100.00;61094.06;5112376;28;20421;-75
2022/03/06 03:09:00;;;;;;;13.07;8.50;;;;;;;2.77;100.00;61100.28;5112913;28;20432;-73
2022/03/06 03:11:31;;;;;;;10.63;7.10;;;;;;;1.56;100.00;60975.38;5115941;28;20538;-75
2022/03/06 03:14:00;;;;;;;7.47;5.10;;;;;;;2.54;100.00;61074.38;5116013;28;20535;-74
2022/03/06 03:16:31;;;;;;;12.10;7.07;;;;;;;2.50;100.00;61070.16;5115731;28;20446;-75
2022/03/06 03:18:58;;;;;;;9.40;5.57;;;;;;;1.01;100.00;60917.03;5115601;28;21040;-76
2022/03/06 03:21:26;;;;;;;12.20;7.07;;;;;;;2.66;100.00;61081.56;5098186;28;20441;-74
2022/03/06 03:26:37;;;;;;;12.57;5.33;;;;;;;1.24;100.00;60941.41;5115558;28;20554;-75
2022/03/06 03:29:07;;;;;;;10.53;5.67;;;;;;;1.81;100.00;60998.84;5097461;28;20444;-75
2022/03/06 03:31:38;;;;;;;10.43;6.80;;;;;;;0.93;100.00;60903.53;5115036;28;20560;-75
2022/03/06 03:34:06;;;;;;;11.70;5.77;;;;;;;2.30;100.00;61050.88;5115019;28;20453;-75
2022/03/06 03:39:18;;;;;;;10.90;6.47;;;;;;;1.36;100.00;60951.63;5114591;28;20645;-74
2022/03/06 03:41:48;;;;;;;11.23;5.37;;;;;;;1.22;100.00;60941.78;5115047;28;20444;-76
2022/03/06 03:44:19;;;;;;;13.27;8.17;;;;;;;2.53;100.00;61075.84;5096985;28;20433;-74
2022/03/06 03:46:47;;;;;;;10.10;4.70;;;;;;;1.33;100.00;60950.97;5115100;28;20436;-74
2022/03/06 03:49:20;;;;;;;14.83;8.30;;;;;;;2.34;100.00;61057.63;5115361;28;20971;-74
2022/03/06 03:51:49;;;;;;;12.50;6.83;;;;;;;2.32;100.00;61056.03;5114942;28;20935;-74
2022/03/06 03:57:15;;;;;;;10.00;5.30;;;;;;;2.06;100.00;61023.41;5113017;28;20444;-76
2022/03/06 03:59:48;;;;;;;6.33;3.93;;;;;;;2.28;100.00;61049.28;5114817;28;20437;-74
2022/03/06 04:02:19;;;;;;;10.57;5.70;;;;;;;0.73;100.00;60888.38;5096970;28;20935;-75
2022/03/06 04:04:56;;;;;;;9.67;7.10;;;;;;;2.32;100.00;61056.03;5114914;28;20802;-76
2022/03/06 04:10:14;;;;;;;12.90;8.07;;;;;;;2.31;100.00;61055.00;5114001;28;20479;-75
2022/03/06 04:12:50;;;;;;;7.03;4.60;;;;;;;2.00;100.00;61017.03;5114907;28;20436;-73
2022/03/06 04:15:18;;;;;;;13.63;6.87;;;;;;;2.30;100.00;61048.91;5114255;28;20460;-74
2022/03/06 04:17:47;;;;;;;10.43;6.73;;;;;;;2.31;100.00;61051.94;5115096;28;20429;-74
2022/03/06 04:20:16;;;;;;;8.67;4.67;;;;;;;0.81;100.00;60891.84;5114191;28;20456;-76
2022/03/06 04:22:48;;;;;;;6.57;4.00;;;;;;;2.33;100.00;61054.59;5114994;28;20441;-74
2022/03/06 04:25:17;;;;;;;8.33;5.50;;;;;;;2.27;100.00;61047.69;5114059;28;20449;-74
2022/03/06 04:27:46;;;;;;;5.27;3.50;;;;;;;2.08;100.00;61027.50;5114065;28;20924;-73
2022/03/06 04:32:59;;;;;;;5.80;4.10;;;;;;;2.06;100.00;61022.88;5114551;28;20444;-74
2022/03/06 04:35:38;;;;;;;7.37;4.17;;;;;;;2.10;100.00;61032.69;5114245;28;20441;-76
2022/03/06 04:38:08;;;;;;;5.83;4.00;;;;;;;2.23;100.00;61046.50;5113885;28;20517;-75
2022/03/06 04:40:39;;;;;;;8.43;3.73;;;;;;;2.27;100.00;61053.25;5114087;28;20457;-74
2022/03/06 04:45:53;;;;;;;7.67;4.50;;;;;;;1.93;100.00;61006.56;5112563;28;20851;-74
2022/03/06 04:48:21;;;;;;;7.20;3.50;;;;;;;1.87;100.00;61010.25;5113994;28;20433;-73
2022/03/06 04:50:48;;;;;;;7.70;5.03;;;;;;;2.02;100.00;61024.19;5113814;28;20488;-78
2022/03/06 04:53:20;;;;;;;10.67;6.33;;;;;;;2.24;100.00;61045.03;5113960;28;20437;-75
2022/03/06 04:56:04;;;;;;;11.87;6.20;;;;;;;2.12;100.00;61034.81;5114696;28;20433;-77
2022/03/06 04:58:32;;;;;;;10.33;5.60;;;;;;;0.99;100.00;60919.91;5113723;28;20433;-77
2022/03/06 05:01:15;;;;;;;7.47;5.07;;;;;;;2.18;100.00;61031.13;5113692;28;20981;-74
2022/03/06 05:03:47;;;;;;;10.03;6.53;;;;;;;1.98;100.00;61014.91;5113788;28;20428;-74
2022/03/06 05:06:16;;;;;;;6.47;3.10;;;;;;;0.94;100.00;60904.56;5113822;28;20524;-74
2022/03/06 05:08:50;;;;;;;9.90;4.93;;;;;;;1.87;100.00;61005.75;5114107;28;20437;-75
2022/03/06 05:11:21;;;;;;;6.20;4.10;;;;;;;0.97;100.00;60908.28;5113672;28;20476;-76
2022/03/06 05:13:48;;;;;;;9.63;5.77;;;;;;;1.39;100.00;60949.81;5113315;28;20460;-76
2022/03/06 05:16:17;;;;;;;7.87;4.80;;;;;;;1.72;100.00;60992.34;5113596;28;20442;-72
2022/03/06 05:18:47;;;;;;;9.63;6.00;;;;;;;2.06;100.00;61020.91;5113481;28;20432;-75
2022/03/06 05:21:17;;;;;;;10.30;5.87;;;;;;;1.99;100.00;61016.00;5113817;28;20441;-74
2022/03/06 05:23:47;;;;;;;3.90;2.87;;;;;;;1.76;100.00;60991.56;5095181;28;20502;-76
2022/03/06 05:26:16;;;;;;;5.60;3.67;;;;;;;1.71;100.00;60989.28;5113109;28;20483;-75
2022/03/06 05:28:45;;;;;;;9.90;6.13;;;;;;;1.00;100.00;60920.97;5113030;28;20944;-76
2022/03/06 05:31:18;;;;;;;9.67;5.53;;;;;;;1.86;100.00;61007.22;5112750;28;20480;-73
2022/03/06 05:33:48;;;;;;;6.03;3.87;;;;;;;1.79;100.00;60997.28;5113000;28;20436;-74
2022/03/06 05:36:15;;;;;;;10.03;5.13;;;;;;;0.63;100.00;60872.75;5112974;28;20441;-72
2022/03/06 05:38:42;;;;;;;10.77;5.50;;;;;;;1.72;100.00;60992.34;5113294;28;20448;-73
2022/03/06 05:41:10;;;;;;;11.43;5.17;;;;;;;1.98;100.00;61019.94;5094657;28;20543;-74
2022/03/06 05:43:39;;;;;;;13.73;5.90;;;;;;;1.97;100.00;61018.34;5113091;28;20433;-75
2022/03/06 05:46:15;;;;;;;13.73;6.70;;;;;;;2.17;100.00;61040.13;5094645;28;20965;-73
2022/03/06 05:48:44;;;;;;;15.33;6.83;;;;;;;1.92;100.00;61010.53;5112714;28;20505;-76
2022/03/06 05:51:20;;;;;;;11.03;5.23;;;;;;;1.30;100.00;60945.25;5112320;28;20870;-72
2022/03/06 05:53:52;;;;;;;19.93;9.07;;;;;;;1.73;100.00;60993.41;5112924;28;20450;-74
2022/03/06 05:56:20;;;;;;;14.03;7.27;;;;;;;1.97;100.00;61015.84;5113425;28;20460;-74
2022/03/06 05:58:49;;;;;;;16.93;7.60;;;;;;;1.94;100.00;61010.69;5112744;28;20494;-74
2022/03/06 06:01:22;;;;;;;12.87;6.23;;;;;;;1.97;100.00;61016.38;5112525;28;20449;-75
2022/03/06 06:03:51;;;;;;;18.07;7.73;;;;;;;1.11;100.00;60927.63;5113011;28;20427;-74
2022/03/06 06:06:21;;;;;;;10.00;4.87;;;;;;;0.39;100.00;60849.28;5112497;28;20509;-75
2022/03/06 06:09:00;;;;;;;7.80;4.63;;;;;;;1.97;100.00;61018.91;5112230;28;20829;-74
2022/03/06 06:11:28;;;;;;;5.53;3.47;;;;;;;1.85;100.00;61001.13;5113002;28;20475;-73
2022/03/06 06:13:57;;;;;;;10.07;3.37;;;;;;;0.46;100.00;60854.22;5114871;28;20539;-73
2022/03/06 06:16:27;;;;;;;4.37;2.67;;;;;;;1.90;100.00;61006.44;5114840;28;20448;-74
2022/03/06 06:18:55;;;;;;;8.77;4.73;;;;;;;1.86;100.00;61002.19;5112626;28;20974;-76
2022/03/06 06:21:25;;;;;;;10.30;4.67;;;;;;;1.97;100.00;61015.84;5112453;28;20486;-75
2022/03/06 06:23:52;;;;;;;8.63;4.90;;;;;;;2.00;100.00;61019.56;5112610;28;20476;-77
2022/03/06 06:26:23;;;;;;;18.13;6.60;;;;;;;1.61;100.00;60985.69;5112926;28;21006;-75
2022/03/06 06:28:56;;;;;;;16.03;7.00;;;;;;;2.01;100.00;61020.63;5094398;28;20879;-76
2022/03/06 06:31:28;;;;;;;9.83;4.60;;;;;;;1.73;100.00;60990.38;5096475;28;20476;-75
2022/03/06 06:33:57;;;;;;;13.80;5.37;;;;;;;2.06;100.00;61025.94;5095281;28;20535;-76
2022/03/06 06:36:28;;;;;;;19.90;6.87;;;;;;;1.94;100.00;61013.19;5112612;28;20441;-76
2022/03/06 06:38:58;;;;;;;16.03;6.30;;;;;;;1.83;100.00;61003.50;5112354;28;20449;-75
2022/03/06 06:41:27;;;;;;;25.07;6.50;;;;;;;1.71;100.00;60991.28;5112397;28;20452;-75
2022/03/06 06:43:54;;;;;;;18.83;5.83;;;;;;;1.83;100.00;61004.03;5114522;28;20994;-74
2022/03/06 06:46:23;;;;;;;14.93;5.30;;;;;;;0.34;100.00;60844.53;5117164;28;20476;-75
2022/03/06 06:49:05;;;;;;;16.90;5.43;;;;;;;1.59;100.00;60976.03;5116838;28;20429;-73
2022/03/06 06:51:42;;;;;;;12.77;4.27;;;;;;;2.12;100.00;61029.25;5117477;28;20572;-75
2022/03/06 06:54:13;;;;;;;10.93;5.63;;;;;;;1.91;100.00;61006.97;5116556;28;20453;-75
2022/03/06 06:56:40;;;;;;;12.13;4.97;;;;;;;1.83;100.00;60999.00;5116341;28;20547;-74
2022/03/06 06:59:13;;;;;;;11.90;4.40;;;;;;;1.53;100.00;60972.19;5116379;28;20437;-75
2022/03/06 07:01:47;;;;;;;13.20;4.90;;;;;;;1.54;100.00;60970.72;5116061;28;20444;-75
2022/03/06 07:04:18;;;;;;;16.57;6.10;;;;;;;2.04;100.00;61021.28;5116026;28;20425;-73
2022/03/06 07:06:51;;;;;;;25.57;6.10;;;;;;;1.99;100.00;61016.00;5115495;28;20531;-76
2022/03/06 07:09:18;;;;;;;8.67;3.70;;;;;;;1.33;100.00;60948.47;5116497;28;20425;-74
2022/03/06 07:11:51;;;;;;;24.53;6.70;;;;;;;2.07;100.00;61027.00;5116236;28;20472;-75
2022/03/06 07:14:18;;;;;;;17.10;6.23;;;;;;;1.90;100.00;61006.44;5115118;28;20947;-76
2022/03/06 07:16:47;;;;;;;14.10;5.60;;;;;;;1.17;100.00;60931.47;5115840;28;20437;-75
2022/03/06 07:19:18;;;;;;;20.80;5.50;;;;;;;1.01;100.00;60907.00;5116068;28;20441;-77
2022/03/06 07:21:49;;;;;;;9.67;4.57;;;;;;;2.05;100.00;61022.38;5116606;28;20512;-74
2022/03/06 07:24:17;;;;;;;9.03;3.43;;;;;;;0.21;100.00;60827.72;5116561;28;20501;-76
2022/03/06 07:32:16;;;;;;;12.57;5.20;;;;;;;0.54;100.00;60863.22;5112862;28;20546;-76
2022/03/06 07:35:13;;;;;;;7.23;4.07;;;;;;;1.91;100.00;61007.50;5116265;28;20440;-73
2022/03/06 07:37:48;;;;;;;18.00;6.07;;;;;;;1.97;100.00;61018.91;5114770;28;20466;-76
2022/03/06 07:40:25;;;;;;;14.00;4.77;;;;;;;1.73;100.00;60993.41;5115273;28;20462;-78
2022/03/06 07:45:58;;;;;;;5.87;2.37;;;;;;;0.48;100.00;60849.34;5114087;28;20519;-75
2022/03/06 07:48:27;;;;;;;3.20;2.13;;;;;;;1.79;100.00;60992.25;5115485;28;20440;-77
2022/03/06 07:51:01;;;;;;;7.67;4.07;;;;;;;1.86;100.00;61002.19;5115336;28;20437;-73
2022/03/06 07:54:14;;;;;;;3.90;2.53;;;;;;;1.86;100.00;61004.16;5115006;28;20457;-76
2022/03/06 07:59:40;;;;;;;6.87;3.20;;;;;;;1.61;100.00;60978.16;5115026;28;20514;-76
2022/03/06 08:02:17;;;;;;;3.77;2.43;;;;;;;1.34;100.00;60947.53;5096721;28;21011;-75
2022/03/06 08:04:44;;;;;;;5.00;2.93;;;;;;;1.84;100.00;61004.53;5114949;28;20440;-75
2022/03/06 08:07:26;;;;;;;6.10;3.80;;;;;;;1.86;100.00;61001.66;5114972;28;20469;-76
2022/03/06 08:09:57;;;;;;;5.90;3.90;;;;;;;2.00;100.00;61017.03;5115585;28;20521;-74
2022/03/06 08:12:37;;;;;;;7.50;4.33;;;;;;;2.23;100.00;61043.44;5114757;28;20564;-74
2022/03/06 08:15:15;;;;;;;7.30;4.07;;;;;;;0.76;100.00;60891.56;5114904;28;20484;-76
2022/03/06 08:17:57;;;;;;;6.37;3.73;;;;;;;1.85;100.00;61006.16;5115502;28;20443;-76
2022/03/06 08:20:39;;;;;;;5.13;3.10;;;;;;;2.43;100.00;61067.75;5096637;28;20445;-77
2022/03/06 08:23:09;;;;;;;4.00;3.17;;;;;;;2.28;100.00;61051.81;5114953;28;20444;-76
2022/03/06 08:25:49;;;;;;;4.70;2.90;;;;;;;2.36;100.00;61055.28;5114781;28;20433;-76
2022/03/06 08:28:22;;;;;;;3.50;2.67;;;;;;;2.27;100.00;61047.69;5113173;28;20934;-75
2022/03/06 08:33:43;;;;;;;5.70;3.53;;;;;;;1.08;100.00;60919.41;5114121;28;20527;-74
2022/03/06 08:36:37;;;;;;;6.63;3.63;;;;;;;2.06;100.00;61030.94;5096340;28;20483;-77
2022/03/06 08:39:10;;;;;;;5.33;3.60;;;;;;;1.33;100.00;60948.47;5114478;28;20440;-76
2022/03/06 08:41:42;;;;;;;5.60;3.80;;;;;;;2.16;100.00;61039.06;5096650;28;20878;-77
2022/03/06 08:44:15;;;;;;;5.70;3.87;;;;;;;1.89;100.00;61010.41;5114836;28;20540;-77
2022/03/06 08:49:52;;;;;;;8.13;4.40;;;;;;;1.51;100.00;60970.06;5112614;28;20472;-78
2022/03/06 08:57:46;;;;;;;12.50;6.33;;;;;;;1.92;100.00;61013.56;5112624;28;20433;-75
2022/03/06 09:00:18;;;;;;;12.43;6.10;;;;;;;2.28;100.00;61051.81;5095917;28;20445;-74
2022/03/06 09:02:48;;;;;;;7.60;3.33;;;;;;;1.95;100.00;61016.78;5114049;28;20447;-78
2022/03/06 09:05:17;;;;;;;14.80;4.33;;;;;;;1.67;100.00;60984.53;5113504;28;20445;-76
2022/03/06 09:07:44;;;;;;;6.17;3.03;;;;;;;1.93;100.00;61009.63;5113098;28;20920;-76
2022/03/06 09:10:14;;;;;;;6.40;3.43;;;;;;;0.46;100.00;60859.75;5113065;28;20445;-78
2022/03/06 09:12:42;;;;;;;10.20;5.47;;;;;;;1.13;100.00;60919.72;5112639;28;20538;-76
2022/03/06 09:15:12;;;;;;;7.13;4.53;;;;;;;1.01;100.00;60912.00;5113529;28;20471;-77
2022/03/06 09:17:49;;;;;;;8.13;4.23;;;;;;;1.96;100.00;61012.81;5113555;28;20466;-74
2022/03/06 09:20:16;;;;;;;8.23;4.90;;;;;;;0.62;100.00;60873.69;5112752;28;20912;-79
2022/03/06 09:22:45;;;;;;;4.67;3.23;;;;;;;1.22;100.00;60936.78;5113640;28;20553;-76
2022/03/06 09:25:20;;;;;;;4.30;2.97;;;;;;;2.47;100.00;61072.00;5112869;28;20449;-76
2022/03/06 09:27:47;;;;;;;5.63;4.03;;;;;;;2.31;100.00;61054.47;5112086;28;21060;-75
2022/03/06 09:30:17;;;;;;;8.73;5.70;;;;;;;2.33;100.00;61057.13;5113351;28;20437;-76
2022/03/06 09:35:31;;;;;;;4.40;3.10;;;;;;;1.25;100.00;60932.44;5108568;28;20480;-76
2022/03/06 09:38:00;;;;;;;6.27;3.37;;;;;;;1.19;100.00;60936.63;5112450;28;20447;-76
2022/03/06 09:40:34;;;;;;;7.10;4.47;;;;;;;2.67;100.00;61087.13;5110389;28;20978;-74
2022/03/06 09:43:35;;;;;;;6.13;4.10;;;;;;;2.80;100.00;61106.00;5112905;28;20444;-78
2022/03/06 09:46:18;;;;;;;9.70;5.83;;;;;;;2.86;100.00;61112.38;5112281;28;20978;-76
2022/03/06 09:49:10;;;;;;;9.60;3.80;;;;;;;2.77;100.00;61097.75;5094687;28;20505;-76
2022/03/06 09:51:41;;;;;;;4.20;2.63;;;;;;;2.48;100.00;61072.50;5112398;28;20481;-77
2022/03/06 09:54:13;;;;;;;6.63;3.90;;;;;;;1.16;100.00;60927.91;5113051;28;20449;-74
2022/03/06 09:56:45;;;;;;;7.20;4.60;;;;;;;2.50;100.00;61075.16;5111924;28;20445;-75
2022/03/06 09:59:14;;;;;;;21.37;8.20;;;;;;;2.71;100.00;61091.38;5113351;28;20986;-75
2022/03/06 10:01:48;;;;;;;6.43;4.70;;;;;;;2.66;100.00;61083.56;5112243;28;20444;-76
2022/03/06 10:04:25;;;;;;;9.47;5.50;;;;;;;2.61;100.00;61085.78;5094541;28;20440;-76
2022/03/06 10:07:08;;;;;;;34.73;13.20;;;;;;;2.09;100.00;61023.56;5095493;28;20437;-74
2022/03/06 10:09:48;;;;;;;13.10;5.80;;;;;;;2.54;100.00;61074.38;5112925;28;20432;-75
2022/03/06 10:15:17;;;;;;;4.93;3.10;;;;;;;1.35;100.00;60943.06;5112073;28;20464;-75
2022/03/06 10:20:30;;;;;;;4.43;2.90;;;;;;;2.74;100.00;61097.09;5112307;28;20959;-76
2022/03/06 10:23:00;;;;;;;3.50;2.97;;;;;;;1.63;100.00;60975.78;5112707;28;20436;-75
2022/03/06 10:28:16;;;;;;;5.50;3.30;;;;;;;1.97;100.00;61018.91;5109450;28;20555;-77
2022/03/06 10:33:40;;;;;;;8.53;5.20;;;;;;;3.01;100.00;61123.28;5112096;28;20484;-78
2022/03/06 10:41:57;;;;;;;6.43;3.53;;;;;;;2.70;100.00;61090.34;5110897;28;20830;-77
2022/03/06 10:44:46;;;;;;;6.03;3.80;;;;;;;2.77;100.00;61102.78;5112046;28;20439;-75
2022/03/06 10:47:14;;;;;;;13.70;6.10;;;;;;;1.29;100.00;60941.72;5094155;28;20532;-75
2022/03/06 10:49:43;;;;;;;14.60;5.50;;;;;;;2.26;100.00;61047.16;5094113;28;20440;-74
2022/03/06 10:52:17;;;;;;;13.93;6.60;;;;;;;1.47;100.00;60965.81;5112109;28;20472;-74
2022/03/06 10:54:57;;;;;;;13.07;4.83;;;;;;;2.65;100.00;61085.00;5112819;28;20490;-74
2022/03/06 11:00:19;;;;;;;7.73;3.43;;;;;;;2.47;100.00;61072.00;5112042;28;20801;-74
2022/03/06 11:05:44;;;;;;;8.67;3.77;;;;;;;2.37;100.00;61055.81;5111659;28;20931;-77
2022/03/06 11:08:40;;;;;;;9.63;4.83;;;;;;;2.29;100.00;61052.88;5112593;28;20429;-74
2022/03/06 11:11:19;;;;;;;9.87;4.93;;;;;;;2.18;100.00;61038.13;5112744;28;20456;-78
2022/03/06 11:13:57;;;;;;;5.17;2.40;;;;;;;0.79;100.00;60891.69;5111823;28;21010;-74
2022/03/06 11:16:25;;;;;;;5.37;3.27;;;;;;;0.49;100.00;60865.44;5112411;28;20485;-76
2022/03/06 11:18:55;;;;;;;5.50;2.73;;;;;;;1.89;100.00;61009.88;5111720;28;20525;-74
2022/03/06 11:21:39;;;;;;;10.63;3.50;;;;;;;1.84;100.00;61005.09;5110885;28;20452;-77
2022/03/06 11:24:28;;;;;;;5.20;3.27;;;;;;;1.79;100.00;60999.78;5111764;28;20436;-74
2022/03/06 11:27:20;;;;;;;10.60;5.70;;;;;;;1.15;100.00;60929.88;5112028;28;20529;-75
2022/03/06 11:33:05;;;;;;;8.37;4.20;;;;;;;1.96;100.00;61017.81;5113022;28;20487;-74
2022/03/06 11:35:39;;;;;;;20.10;8.37;;;;;;;1.97;100.00;61013.34;5115867;28;20432;-77
2022/03/06 11:38:13;;;;;;;20.70;8.30;;;;;;;2.00;100.00;61017.03;5115269;28;20467;-76
2022/03/06 11:40:51;;;;;;;16.20;6.70;;;;;;;2.10;100.00;61027.66;5114774;28;20453;-78
2022/03/06 11:43:44;;;;;;;24.40;11.13;;;;;;;1.90;100.00;61006.44;5115710;28;20425;-78
2022/03/06 11:46:19;;;;;;;8.50;5.33;;;;;;;0.94;100.00;60909.59;5097104;28;20455;-75
2022/03/06 11:52:45;;;;;;;8.73;4.40;;;;;;;2.08;100.00;61028.06;5114939;28;20484;-75
2022/03/06 11:55:33;;;;;;;4.80;3.87;;;;;;;2.04;100.00;61021.28;5115046;28;20437;-76
2022/03/06 11:58:37;;;;;;;10.17;4.03;;;;;;;2.11;100.00;61028.72;5114576;28;20449;-77
2022/03/06 12:04:14;;;;;;;19.23;9.53;;;;;;;2.03;100.00;61022.75;5114728;28;20437;-75
2022/03/06 12:06:50;;;;;;;5.17;3.37;;;;;;;0.23;100.00;60830.38;5114722;28;20501;-75
2022/03/06 12:09:36;;;;;;;7.70;4.60;;;;;;;1.62;100.00;60977.25;5115230;28;20444;-74
2022/03/06 12:20:45;;;;;;;10.03;5.87;;;;;;;1.27;100.00;60942.09;5113601;28;20467;-78
2022/03/06 12:23:29;;;;;;;10.17;6.27;;;;;;;1.35;100.00;60953.59;5113166;28;20502;-76
2022/03/06 12:26:01;;;;;;;9.40;6.00;;;;;;;1.33;100.00;60950.97;5115180;28;20468;-74
2022/03/06 12:29:06;;;;;;;9.33;6.70;;;;;;;1.43;100.00;60964.09;5114312;28;20453;-78
2022/03/06 12:35:05;;;;;;;11.50;5.67;;;;;;;1.45;100.00;60961.72;5108799;28;20970;-77
2022/03/06 12:37:39;;;;;;;8.10;5.43;;;;;;;1.43;100.00;60962.09;5114171;28;20453;-74
2022/03/06 12:40:10;;;;;;;8.23;4.63;;;;;;;0.33;100.00;60842.94;5113809;28;20498;-76
2022/03/06 12:45:21;;;;;;;10.33;5.33;;;;;;;2.01;100.00;61022.59;5113688;28;20504;-75
2022/03/06 12:47:49;;;;;;;9.90;6.33;;;;;;;1.91;100.00;61012.53;5114548;28;20440;-74
2022/03/06 12:50:23;;;;;;;12.73;6.17;;;;;;;1.65;100.00;60984.94;5114296;28;20475;-74
2022/03/06 12:52:55;;;;;;;7.27;4.40;;;;;;;2.01;100.00;61023.13;5114174;28;20476;-75
2022/03/06 12:55:24;;;;;;;11.17;6.33;;;;;;;0.90;100.00;60905.88;5114696;28;20445;-74
2022/03/06 12:57:59;;;;;;;7.90;4.73;;;;;;;2.15;100.00;61032.97;5113934;28;20433;-76
2022/03/06 13:00:33;;;;;;;17.63;7.47;;;;;;;0.99;100.00;60909.88;5114688;28;20465;-75
2022/03/06 13:06:12;;;;;;;15.30;7.73;;;;;;;2.09;100.00;61029.13;5112794;28;20447;-76
2022/03/06 13:08:50;;;;;;;39.17;11.10;;;;;;;1.15;100.00;60929.88;5114209;28;20448;-77
2022/03/06 13:11:17;;;;;;;33.07;11.77;;;;;;;2.12;100.00;61029.25;5113557;28;20821;-75
2022/03/06 13:13:46;;;;;;;20.23;7.97;;;;;;;2.04;100.00;61021.28;5114215;28;20485;-74
2022/03/06 13:16:33;;;;;;;29.27;11.23;;;;;;;2.26;100.00;61049.69;5112970;28;20522;-74
2022/03/06 13:19:05;;;;;;;20.37;9.63;;;;;;;2.16;100.00;61034.03;5113247;28;20540;-76
2022/03/06 13:21:51;;;;;;;18.47;6.40;;;;;;;2.21;100.00;61039.34;5113193;28;20517;-77
2022/03/06 13:24:23;;;;;;;19.33;7.23;;;;;;;0.87;100.00;60902.19;5113461;28;20516;-76
2022/03/06 13:26:57;;;;;;;11.20;5.87;;;;;;;1.92;100.00;61013.56;5112811;28;20485;-75
2022/03/06 13:29:32;;;;;;;20.53;8.07;;;;;;;1.97;100.00;61016.38;5095265;28;20462;-75
2022/03/06 13:31:59;;;;;;;15.07;5.90;;;;;;;1.88;100.00;61006.28;5113631;28;20965;-76
2022/03/06 13:34:27;;;;;;;16.07;7.33;;;;;;;1.84;100.00;60999.53;5113540;28;20481;-75
2022/03/06 13:37:02;;;;;;;19.63;6.07;;;;;;;1.41;100.00;60959.97;5112777;28;20488;-75
2022/03/06 13:39:29;;;;;;;28.63;10.10;;;;;;;1.29;100.00;60941.72;5113228;28;20425;-75
2022/03/06 13:42:00;;;;;;;17.57;6.70;;;;;;;1.04;100.00;60912.66;5109775;28;20510;-76
2022/03/06 13:44:33;;;;;;;17.73;6.77;;;;;;;2.09;100.00;61031.09;5113688;28;20523;-76
2022/03/06 13:47:13;;;;;;;16.30;4.83;;;;;;;1.75;100.00;60990.53;5113442;28;20432;-77
2022/03/06 13:49:45;;;;;;;9.63;4.97;;;;;;;2.12;100.00;61032.28;5112994;28;20524;-74